createdAt,value
2019-01-23T00:01:44.739Z,14.97
2019-01-23T00:05:03.093Z,18.47
2019-01-23T00:07:57.000Z,12.00
2019-01-23T00:14:10.533Z,13.43
2019-01-23T00:17:02.376Z,6.93
2019-01-23T00:19:48.628Z,12.50
2019-01-23T00:22:48.131Z,17.97
2019-01-23T00:25:34.146Z,16.50
2019-01-23T00:28:44.839Z,20.05
2019-01-23T00:31:52.178Z,18.80
2019-01-23T00:38:20.427Z,73.77
2019-01-23T00:41:19.568Z,52.03
2019-01-23T00:44:02.067Z,535.47
2019-01-23T00:46:55.223Z,174.90
2019-01-23T00:49:40.749Z,125.23
2019-01-23T00:52:25.353Z,287.13
2019-01-23T00:55:28.362Z,186.80
2019-01-23T00:58:11.776Z,658.75
2019-01-23T01:01:00.779Z,723.47
2019-01-23T01:03:52.647Z,363.80
2019-01-23T01:06:39.938Z,583.20
2019-01-23T01:09:35.947Z,257.57
2019-01-23T01:12:23.475Z,589.40
2019-01-23T01:15:22.157Z,592.00
2019-01-23T01:18:19.683Z,517.77
2019-01-23T01:21:03.666Z,136.47
2019-01-23T01:23:41.329Z,962.03
2019-01-23T01:26:34.383Z,418.77
2019-01-23T01:29:37.493Z,528.60
2019-01-23T01:32:31.782Z,578.27
2019-01-23T01:35:13.845Z,634.50
2019-01-23T01:38:05.720Z,245.43
2019-01-23T01:40:52.022Z,108.07
2019-01-23T01:43:37.321Z,163.87
2019-01-23T01:46:27.381Z,198.87
2019-01-23T01:49:08.137Z,168.30
2019-01-23T01:52:02.372Z,209.27
2019-01-23T01:54:43.330Z,41.25
2019-01-23T01:57:57.301Z,203.37
2019-01-23T02:00:45.730Z,276.40
2019-01-23T02:03:58.553Z,544.80
2019-01-23T02:07:08.223Z,353.98
2019-01-23T02:10:02.515Z,107.50
2019-01-23T02:12:33.422Z,29.33
2019-01-23T02:15:23.591Z,182.50
2019-01-23T02:17:56.407Z,592.20
2019-01-23T02:20:46.413Z,125.60
2019-01-23T02:23:26.894Z,45.43
2019-01-23T02:26:15.067Z,412.23
2019-01-23T02:29:09.463Z,211.37
2019-01-23T02:32:13.466Z,151.42
2019-01-23T02:35:20.850Z,395.70
2019-01-23T02:38:08.621Z,47.87
2019-01-23T02:41:42.182Z,908.47
2019-01-23T02:44:37.904Z,337.40
2019-01-23T02:48:04.120Z,622.80
2019-01-23T02:51:07.926Z,758.63
2019-01-23T02:54:20.968Z,431.37
2019-01-23T02:57:42.647Z,892.70
2019-01-23T03:01:06.746Z,412.50
2019-01-23T03:04:12.690Z,612.85
2019-01-23T03:06:51.683Z,142.98
2019-01-23T03:09:24.008Z,141.53
2019-01-23T03:11:59.115Z,73.93
2019-01-23T03:14:35.306Z,87.57
2019-01-23T03:17:08.761Z,73.00
2019-01-23T03:19:46.475Z,25.20
2019-01-23T03:22:20.229Z,34.57
2019-01-23T03:24:50.145Z,75.87
2019-01-23T03:27:25.525Z,23.77
2019-01-23T03:29:57.332Z,17.87
2019-01-23T03:32:28.170Z,36.50
2019-01-23T03:34:59.363Z,46.97
2019-01-23T03:37:33.615Z,39.48
2019-01-23T03:40:04.873Z,40.07
2019-01-23T03:42:38.043Z,25.27
2019-01-23T03:45:12.630Z,34.10
2019-01-23T03:47:42.735Z,26.50
2019-01-23T03:50:19.447Z,27.27
2019-01-23T03:52:54.249Z,29.93
2019-01-23T03:55:25.769Z,21.40
2019-01-23T03:57:58.293Z,15.43
2019-01-23T04:00:31.744Z,23.65
2019-01-23T04:03:05.561Z,27.27
2019-01-23T04:05:36.164Z,23.87
2019-01-23T04:08:08.395Z,38.57
2019-01-23T04:10:43.545Z,25.75
2019-01-23T04:13:13.494Z,72.67
2019-01-23T04:15:44.710Z,63.70
2019-01-23T04:18:16.482Z,28.87
2019-01-23T04:20:51.629Z,18.60
2019-01-23T04:23:22.162Z,29.87
2019-01-23T04:25:51.936Z,10.93
2019-01-23T04:28:21.817Z,23.30
2019-01-23T04:30:55.273Z,17.03
2019-01-23T04:33:25.153Z,10.28
2019-01-23T04:35:56.996Z,28.20
2019-01-23T04:38:26.937Z,27.80
2019-01-23T04:40:56.706Z,22.20
2019-01-23T04:43:26.491Z,11.50
2019-01-23T04:45:58.038Z,20.77
2019-01-23T04:48:30.834Z,26.23
2019-01-23T04:51:12.355Z,24.23
2019-01-23T04:53:54.854Z,7.73
2019-01-23T04:59:30.201Z,14.53
2019-01-23T05:02:18.321Z,15.83
2019-01-23T05:05:02.054Z,7.90
2019-01-23T05:08:26.245Z,12.43
2019-01-23T05:11:38.791Z,6.83
2019-01-23T05:14:50.046Z,17.83
2019-01-23T05:17:51.828Z,13.40
2019-01-23T05:20:57.957Z,25.20
2019-01-23T05:23:57.245Z,38.50
2019-01-23T05:27:09.127Z,27.00
2019-01-23T05:30:07.053Z,24.60
2019-01-23T05:33:13.801Z,17.87
2019-01-23T05:36:08.660Z,15.23
2019-01-23T05:39:11.889Z,18.50
2019-01-23T05:42:06.403Z,17.50
2019-01-23T05:44:46.434Z,11.50
2019-01-23T05:47:51.201Z,19.32
2019-01-23T05:50:32.226Z,25.23
2019-01-23T05:53:06.344Z,19.17
2019-01-23T05:55:37.909Z,23.13
2019-01-23T05:58:17.444Z,18.73
2019-01-23T06:00:50.017Z,24.18
2019-01-23T06:03:29.777Z,37.10
2019-01-23T06:06:00.184Z,23.80
2019-01-23T06:08:30.373Z,22.00
2019-01-23T06:11:00.142Z,29.30
2019-01-23T06:13:29.964Z,17.80
2019-01-23T06:15:59.754Z,20.73
2019-01-23T06:18:31.975Z,13.27
2019-01-23T06:21:06.786Z,13.03
2019-01-23T06:23:36.606Z,11.10
2019-01-23T06:26:15.175Z,7.87
2019-01-23T06:28:47.277Z,23.23
2019-01-23T06:31:24.529Z,12.88
2019-01-23T06:34:12.011Z,13.83
2019-01-23T06:36:53.335Z,17.17
2019-01-23T06:39:33.121Z,14.53
2019-01-23T06:42:23.836Z,13.37
2019-01-23T06:45:16.695Z,17.50
2019-01-23T06:47:51.308Z,19.53
2019-01-23T06:50:27.688Z,13.60
2019-01-23T06:53:19.936Z,13.70
2019-01-23T06:55:55.638Z,17.63
2019-01-23T06:58:54.531Z,19.62
2019-01-23T07:01:32.189Z,12.33
2019-01-23T07:04:25.717Z,13.80
2019-01-23T07:07:16.113Z,15.80
2019-01-23T07:09:57.408Z,13.95
2019-01-23T07:12:55.037Z,13.60
2019-01-23T07:15:51.160Z,16.10
2019-01-23T07:18:28.868Z,13.98
2019-01-23T07:21:11.426Z,14.97
2019-01-23T07:23:54.760Z,11.07
2019-01-23T07:26:41.638Z,12.23
2019-01-23T07:29:29.323Z,9.73
2019-01-23T07:32:11.038Z,10.33
2019-01-23T07:34:43.686Z,11.17
2019-01-23T07:37:34.035Z,12.17
2019-01-23T07:40:37.663Z,14.93
2019-01-23T07:43:47.852Z,15.33
2019-01-23T07:47:11.764Z,12.47
2019-01-23T07:50:55.341Z,3.93
2019-01-23T07:57:26.757Z,8.13
2019-01-23T08:00:05.964Z,12.23
2019-01-23T08:02:39.564Z,5.07
2019-01-23T08:05:19.389Z,6.97
2019-01-23T08:08:03.463Z,11.43
2019-01-23T08:11:05.574Z,6.17
2019-01-23T08:13:44.514Z,12.60
2019-01-23T08:16:15.209Z,11.07
2019-01-23T08:18:53.431Z,13.80
2019-01-23T08:21:43.765Z,8.13
2019-01-23T08:24:25.321Z,8.40
2019-01-23T08:33:34.544Z,13.35
2019-01-23T08:36:31.546Z,9.70
2019-01-23T08:39:41.473Z,10.23
2019-01-23T08:42:52.021Z,11.90
2019-01-23T08:45:46.957Z,5.33
2019-01-23T08:48:43.209Z,8.97
2019-01-23T08:51:46.780Z,6.60
2019-01-23T08:54:39.239Z,6.60
2019-01-23T08:57:33.817Z,15.93
2019-01-23T09:00:25.964Z,11.17
2019-01-23T09:03:17.154Z,8.33
2019-01-23T09:06:12.579Z,11.50
2019-01-23T09:08:50.039Z,13.40
2019-01-23T09:11:43.084Z,13.83
2019-01-23T09:14:44.170Z,13.70
2019-01-23T09:17:58.446Z,12.07
2019-01-23T09:21:04.122Z,8.93
2019-01-23T09:23:43.636Z,7.20
2019-01-23T09:29:21.158Z,8.27
2019-01-23T09:32:09.012Z,12.73
2019-01-23T09:34:57.472Z,12.23
2019-01-23T09:38:02.024Z,14.70
2019-01-23T09:40:59.516Z,16.60
2019-01-23T09:44:11.209Z,15.93
2019-01-23T09:47:24.756Z,15.33
2019-01-23T09:50:27.957Z,17.10
2019-01-23T09:53:11.641Z,10.78
2019-01-23T09:56:00.666Z,13.73
2019-01-23T09:58:36.934Z,16.07
2019-01-23T10:01:26.077Z,14.90
2019-01-23T10:04:30.866Z,13.83
2019-01-23T10:07:33.169Z,11.90
2019-01-23T10:11:01.870Z,12.57
2019-01-23T10:17:13.237Z,10.67
2019-01-23T10:19:55.046Z,5.23
2019-01-23T10:22:50.308Z,5.77
2019-01-23T10:26:14.083Z,6.25
2019-01-23T10:29:18.761Z,7.10
2019-01-23T10:32:18.846Z,7.53
2019-01-23T10:35:15.598Z,7.00
2019-01-23T10:38:06.931Z,4.20
2019-01-23T10:40:39.777Z,5.77
2019-01-23T10:43:13.671Z,6.30
2019-01-23T10:45:53.516Z,4.13
2019-01-23T10:48:46.146Z,8.10
2019-01-23T10:51:20.595Z,4.43
2019-01-23T10:53:52.834Z,6.67
2019-01-23T10:56:54.438Z,5.73
2019-01-23T11:02:40.859Z,4.47
2019-01-23T11:05:20.975Z,4.67
2019-01-23T11:07:57.347Z,4.70
2019-01-23T11:10:31.654Z,4.12
2019-01-23T11:13:02.351Z,4.30
2019-01-23T11:15:35.427Z,4.47
2019-01-23T11:18:10.417Z,6.57
2019-01-23T11:20:45.261Z,3.00
2019-01-23T11:23:27.698Z,5.07
2019-01-23T11:26:13.752Z,4.97
2019-01-23T11:28:58.059Z,3.70
2019-01-23T11:31:30.562Z,3.12
2019-01-23T11:34:01.410Z,2.60
2019-01-23T11:36:35.669Z,3.27
2019-01-23T11:39:10.525Z,2.73
2019-01-23T11:42:21.673Z,3.50
2019-01-23T11:45:12.508Z,2.37
2019-01-23T11:47:49.553Z,3.17
2019-01-23T11:50:32.369Z,4.10
2019-01-23T11:53:07.656Z,3.30
2019-01-23T11:55:40.606Z,2.60
2019-01-23T11:58:19.620Z,4.73
2019-01-23T12:01:04.051Z,4.30
2019-01-23T12:03:42.410Z,3.15
2019-01-23T12:06:17.404Z,5.47
2019-01-23T12:09:15.803Z,4.22
2019-01-23T12:11:55.963Z,4.83
2019-01-23T12:15:04.936Z,4.00
2019-01-23T12:17:43.232Z,3.70
2019-01-23T12:20:21.765Z,3.90
2019-01-23T12:22:55.711Z,3.65
2019-01-23T12:25:32.372Z,3.23
2019-01-23T12:28:08.787Z,4.13
2019-01-23T12:30:43.587Z,3.13
2019-01-23T12:33:17.641Z,4.27
2019-01-23T12:35:49.141Z,5.50
2019-01-23T12:38:49.795Z,3.87
2019-01-23T12:41:31.245Z,3.93
2019-01-23T12:44:24.396Z,5.50
2019-01-23T12:47:21.902Z,4.50
2019-01-23T12:49:55.367Z,4.40
2019-01-23T12:56:06.072Z,3.47
2019-01-23T12:58:50.361Z,4.50
2019-01-23T13:01:34.443Z,3.40
2019-01-23T13:07:34.089Z,1.80
2019-01-23T13:14:03.310Z,2.57
2019-01-23T13:16:41.327Z,5.33
2019-01-23T13:19:19.895Z,4.63
2019-01-23T13:21:58.381Z,3.62
2019-01-23T13:24:34.044Z,2.58
2019-01-23T13:27:42.399Z,3.20
2019-01-23T13:30:28.309Z,3.12
2019-01-23T13:32:59.540Z,2.20
2019-01-23T13:35:50.414Z,3.73
2019-01-23T13:38:28.013Z,2.47
2019-01-23T13:41:21.615Z,3.63
2019-01-23T13:44:32.645Z,2.77
2019-01-23T13:47:25.572Z,2.27
2019-01-23T13:50:22.806Z,3.33
2019-01-23T13:52:55.678Z,2.73
2019-01-23T13:55:28.407Z,4.13
2019-01-23T13:58:24.660Z,2.27
2019-01-23T14:01:04.163Z,2.90
2019-01-23T14:03:39.220Z,3.30
2019-01-23T14:06:29.301Z,4.53
2019-01-23T14:09:11.759Z,2.57
2019-01-23T14:12:09.314Z,2.63
2019-01-23T14:14:56.091Z,3.67
2019-01-23T14:17:50.860Z,4.35
2019-01-23T14:20:44.986Z,4.37
2019-01-23T14:23:26.845Z,6.87
2019-01-23T14:26:10.637Z,3.73
2019-01-23T14:29:07.900Z,4.57
2019-01-23T14:32:15.879Z,4.53
2019-01-23T14:35:26.299Z,4.73
2019-01-23T14:38:33.299Z,3.80
2019-01-23T14:42:00.583Z,5.03
2019-01-23T14:48:13.579Z,3.73
2019-01-23T14:51:12.244Z,4.37
2019-01-23T14:54:12.973Z,6.00
2019-01-23T14:57:01.723Z,3.23
2019-01-23T14:59:56.289Z,2.60
2019-01-23T15:02:40.578Z,2.30
2019-01-23T15:05:29.121Z,3.45
2019-01-23T15:08:16.990Z,3.73
2019-01-23T15:11:00.713Z,3.20
2019-01-23T15:14:00.921Z,4.05
2019-01-23T15:23:20.004Z,1.60
2019-01-23T15:25:59.337Z,3.60
2019-01-23T15:28:38.564Z,4.63
2019-01-23T15:31:27.687Z,1.47
2019-01-23T15:34:07.131Z,2.50
2019-01-23T15:36:58.396Z,1.57
2019-01-23T15:39:40.411Z,2.17
2019-01-23T15:42:33.900Z,1.60
2019-01-23T15:45:22.989Z,4.37
2019-01-23T15:48:10.342Z,3.12
2019-01-23T15:50:59.507Z,1.32
2019-01-23T15:53:37.355Z,0.77
2019-01-23T15:56:13.908Z,1.03
2019-01-23T15:58:50.568Z,1.00
2019-01-23T16:01:41.649Z,0.60
2019-01-23T16:04:42.015Z,1.63
2019-01-23T16:07:38.132Z,0.70
2019-01-23T16:10:31.698Z,0.80
2019-01-23T16:13:21.157Z,0.70
2019-01-23T16:15:55.466Z,1.05
2019-01-23T16:18:32.421Z,0.80
2019-01-23T16:21:14.849Z,1.37
2019-01-23T16:23:59.569Z,1.30
2019-01-23T16:26:51.427Z,0.70
2019-01-23T16:29:46.814Z,0.60
2019-01-23T16:32:46.021Z,0.73
2019-01-23T16:35:45.162Z,2.00
2019-01-23T16:38:54.565Z,0.90
2019-01-23T16:41:32.092Z,1.13
2019-01-23T16:44:17.350Z,0.60
2019-01-23T16:47:07.978Z,0.80
2019-01-23T16:49:57.692Z,1.00
2019-01-23T16:52:37.739Z,0.83
2019-01-23T16:55:31.722Z,1.43
2019-01-23T16:58:16.696Z,1.50
2019-01-23T17:01:04.519Z,1.30
2019-01-23T17:03:56.716Z,1.75
2019-01-23T17:06:49.278Z,2.77
2019-01-23T17:09:28.942Z,3.33
2019-01-23T17:12:11.424Z,1.40
2019-01-23T17:15:07.060Z,1.60
2019-01-23T17:17:58.999Z,1.93
2019-01-23T17:20:48.407Z,1.50
2019-01-23T17:23:37.662Z,1.73
2019-01-23T17:36:17.464Z,1.70
2019-01-23T17:39:23.713Z,1.90
2019-01-23T17:42:37.786Z,2.40
2019-01-23T17:45:33.801Z,1.43
2019-01-23T17:48:45.841Z,2.23
2019-01-23T17:51:35.853Z,2.50
2019-01-23T17:54:46.588Z,1.80
2019-01-23T18:04:22.007Z,1.67
2019-01-23T18:07:46.215Z,1.90
2019-01-23T18:10:43.594Z,1.47
2019-01-23T18:13:52.451Z,1.20
2019-01-23T18:16:43.632Z,1.37
2019-01-23T18:19:27.875Z,1.40
2019-01-23T18:25:44.348Z,1.30
2019-01-23T18:35:59.714Z,1.50
2019-01-23T18:38:43.673Z,1.07
2019-01-23T18:41:37.449Z,0.93
2019-01-23T18:44:25.768Z,0.80
2019-01-23T18:47:33.567Z,0.57
2019-01-23T18:50:15.485Z,0.93
2019-01-23T18:52:48.047Z,1.00
2019-01-23T18:55:25.483Z,0.60
2019-01-23T18:58:06.771Z,2.50
2019-01-23T19:00:42.031Z,1.47
2019-01-23T19:03:23.070Z,1.37
2019-01-23T19:05:56.287Z,1.77
2019-01-23T19:08:26.298Z,1.40
2019-01-23T19:11:16.266Z,0.93
2019-01-23T19:17:20.239Z,2.33
2019-01-23T19:20:32.928Z,5.73
2019-01-23T19:23:10.211Z,2.30
2019-01-23T19:26:01.899Z,3.23
2019-01-23T19:28:52.677Z,3.30
2019-01-23T19:31:22.194Z,1.93
2019-01-23T19:34:02.791Z,0.97
2019-01-23T19:36:51.040Z,1.10
2019-01-23T19:39:38.990Z,1.97
2019-01-23T19:42:33.987Z,2.07
2019-01-23T19:45:07.880Z,1.20
2019-01-23T19:47:46.439Z,1.23
2019-01-23T19:50:27.441Z,1.85
2019-01-23T19:53:03.170Z,1.47
2019-01-23T19:55:50.092Z,1.80
2019-01-23T19:58:41.611Z,1.50
2019-01-23T20:01:25.268Z,1.17
2019-01-23T20:04:22.244Z,1.37
2019-01-23T20:07:17.582Z,0.90
2019-01-23T20:10:14.629Z,1.60
2019-01-23T20:12:50.920Z,1.20
2019-01-23T20:15:29.149Z,1.10
2019-01-23T20:18:09.588Z,1.27
2019-01-23T20:21:02.870Z,1.33
2019-01-23T20:23:34.998Z,1.42
2019-01-23T20:26:05.144Z,0.93
2019-01-23T20:28:35.437Z,1.37
2019-01-23T20:31:14.363Z,1.97
2019-01-23T20:34:11.463Z,1.62
2019-01-23T20:36:52.615Z,1.10
2019-01-23T20:39:25.414Z,1.20
2019-01-23T20:42:13.712Z,3.40
2019-01-23T20:45:05.324Z,0.80
2019-01-23T20:48:09.809Z,1.00
2019-01-23T20:51:01.226Z,0.73
2019-01-23T20:54:00.498Z,1.12
2019-01-23T20:57:06.068Z,0.93
2019-01-23T21:00:27.399Z,0.93
2019-01-23T21:03:24.735Z,1.02
2019-01-23T21:06:37.321Z,1.90
2019-01-23T21:09:39.426Z,1.87
2019-01-23T21:12:49.204Z,0.70
2019-01-23T21:16:22.223Z,1.33
2019-01-23T21:19:14.333Z,1.30
2019-01-23T21:24:59.378Z,0.90
2019-01-23T21:28:01.554Z,1.02
2019-01-23T21:30:48.530Z,0.88
2019-01-23T21:33:52.235Z,1.10
2019-01-23T21:36:50.094Z,0.40
2019-01-23T21:39:29.570Z,1.30
2019-01-23T21:42:46.395Z,0.70
2019-01-23T21:45:29.647Z,1.23
2019-01-23T21:48:11.340Z,0.70
2019-01-23T21:50:52.147Z,0.50
2019-01-23T21:53:26.851Z,0.77
2019-01-23T21:56:18.926Z,0.60
2019-01-23T21:59:15.225Z,0.73
2019-01-23T22:01:58.659Z,1.10
2019-01-23T22:04:42.752Z,1.25
2019-01-23T22:07:53.997Z,0.80
2019-01-23T22:10:45.017Z,0.70
2019-01-23T22:14:03.925Z,0.70
2019-01-23T22:17:18.126Z,0.70
2019-01-23T22:20:28.833Z,0.37
2019-01-23T22:23:37.372Z,0.60
2019-01-23T22:26:36.343Z,0.53
2019-01-23T22:29:40.104Z,0.53
2019-01-23T22:32:55.662Z,0.73
2019-01-23T22:35:52.883Z,0.80
2019-01-23T22:38:47.141Z,0.87
2019-01-23T22:41:46.215Z,0.37
2019-01-23T22:44:44.897Z,0.50
2019-01-23T22:47:44.313Z,0.60
2019-01-23T22:50:33.865Z,0.50
2019-01-23T22:53:30.760Z,0.40
2019-01-23T22:56:10.308Z,0.30
2019-01-23T22:59:07.668Z,0.37
2019-01-23T23:02:09.348Z,1.17
2019-01-23T23:05:21.019Z,0.80
2019-01-23T23:08:02.432Z,1.00
2019-01-23T23:11:14.589Z,0.20
2019-01-23T23:13:57.172Z,1.10
2019-01-23T23:17:04.543Z,1.40
2019-01-23T23:20:32.818Z,0.40
2019-01-23T23:23:18.717Z,0.75
2019-01-23T23:26:13.245Z,1.00
2019-01-23T23:28:47.213Z,0.73
2019-01-23T23:31:47.893Z,0.50
2019-01-23T23:41:24.225Z,0.90
2019-01-23T23:47:20.848Z,0.98
2019-01-23T23:50:13.626Z,0.90
2019-01-23T23:56:45.576Z,0.90
